sensor_id;sensor_type;location;lat;lon;timestamp;pressure;altitude;pressure_sealevel;temperature;humidity
60874;BME280;46715;40.642;-7.920;2022-10-16T00:00:25;96147.00;;;15.13;100.00
60874;BME280;46715;40.642;-7.920;2022-10-16T00:02:26;96141.53;;;15.10;100.00
60874;BME280;46715;40.642;-7.920;2022-10-16T00:04:27;96144.16;;;15.10;100.00
60874;BME280;46715;40.642;-7.920;2022-10-16T00:06:28;96140.28;;;15.07;100.00
60874;BME280;46715;40.642;-7.920;2022-10-16T00:08:29;96144.28;;;15.05;100.00
60874;BME280;46715;40.642;-7.920;2022-10-16T00:10:30;96140.13;;;15.04;100.00
60874;BME280;46715;40.642;-7.920;2022-10-16T00:12:31;96136.41;;;15.05;100.00
60874;BME280;46715;40.642;-7.920;2022-10-16T00:14:31;96141.66;;;15.05;100.00
60874;BME280;46715;40.642;-7.920;2022-10-16T00:16:33;96135.63;;;15.04;100.00
60874;BME280;46715;40.642;-7.920;2022-10-16T00:18:34;96135.44;;;15.00;100.00
60874;BME280;46715;40.642;-7.920;2022-10-16T00:20:35;96134.97;;;14.98;100.00
60874;BME280;46715;40.642;-7.920;2022-10-16T00:22:37;96138.81;;;14.92;100.00
60874;BME280;46715;40.642;-7.920;2022-10-16T00:24:38;96129.47;;;14.86;100.00
60874;BME280;46715;40.642;-7.920;2022-10-16T00:26:39;96131.94;;;14.82;100.00
60874;BME280;46715;40.642;-7.920;2022-10-16T00:28:40;96132.81;;;14.78;100.00
60874;BME280;46715;40.642;-7.920;2022-10-16T00:30:41;96127.09;;;14.76;100.00
60874;BME280;46715;40.642;-7.920;2022-10-16T00:32:42;96123.22;;;14.73;100.00
60874;BME280;46715;40.642;-7.920;2022-10-16T00:34:43;96126.91;;;14.72;100.00
60874;BME280;46715;40.642;-7.920;2022-10-16T00:36:44;96124.56;;;14.71;100.00
60874;BME280;46715;40.642;-7.920;2022-10-16T00:38:45;96125.34;;;14.71;100.00
60874;BME280;46715;40.642;-7.920;2022-10-16T00:40:46;96115.44;;;14.68;100.00
60874;BME280;46715;40.642;-7.920;2022-10-16T00:42:47;96113.13;;;14.66;100.00
60874;BME280;46715;40.642;-7.920;2022-10-16T00:44:54;96106.81;;;14.68;100.00
60874;BME280;46715;40.642;-7.920;2022-10-16T00:46:57;96112.34;;;14.66;100.00
60874;BME280;46715;40.642;-7.920;2022-10-16T00:49:04;96121.75;;;14.67;100.00
60874;BME280;46715;40.642;-7.920;2022-10-16T00:51:06;96113.41;;;14.65;100.00
60874;BME280;46715;40.642;-7.920;2022-10-16T00:53:09;96112.66;;;14.64;100.00
60874;BME280;46715;40.642;-7.920;2022-10-16T00:55:10;96104.78;;;14.64;100.00
60874;BME280;46715;40.642;-7.920;2022-10-16T00:57:11;96097.84;;;14.69;100.00
60874;BME280;46715;40.642;-7.920;2022-10-16T00:59:24;96097.13;;;14.77;100.00
60874;BME280;46715;40.642;-7.920;2022-10-16T01:01:25;96093.63;;;14.81;100.00
60874;BME280;46715;40.642;-7.920;2022-10-16T01:03:29;96094.22;;;14.78;100.00
60874;BME280;46715;40.642;-7.920;2022-10-16T01:05:39;96090.94;;;14.73;100.00
60874;BME280;46715;40.642;-7.920;2022-10-16T01:10:21;96102.16;;;14.64;100.00
60874;BME280;46715;40.642;-7.920;2022-10-16T01:14:46;96101.16;;;14.60;100.00
60874;BME280;46715;40.642;-7.920;2022-10-16T01:17:00;96101.66;;;14.62;100.00
60874;BME280;46715;40.642;-7.920;2022-10-16T01:19:09;96095.81;;;14.65;100.00
60874;BME280;46715;40.642;-7.920;2022-10-16T01:21:17;96092.03;;;14.72;100.00
60874;BME280;46715;40.642;-7.920;2022-10-16T01:25:36;96094.66;;;14.72;100.00
60874;BME280;46715;40.642;-7.920;2022-10-16T01:27:41;96097.28;;;14.72;100.00
60874;BME280;46715;40.642;-7.920;2022-10-16T01:31:57;96097.72;;;14.74;100.00
60874;BME280;46715;40.642;-7.920;2022-10-16T01:34:04;96100.34;;;14.74;100.00
60874;BME280;46715;40.642;-7.920;2022-10-16T01:36:18;96092.19;;;14.75;100.00
60874;BME280;46715;40.642;-7.920;2022-10-16T01:38:30;96096.19;;;14.73;100.00
60874;BME280;46715;40.642;-7.920;2022-10-16T01:40:36;96088.03;;;14.74;100.00
60874;BME280;46715;40.642;-7.920;2022-10-16T01:42:42;96093.56;;;14.73;100.00
60874;BME280;46715;40.642;-7.920;2022-10-16T01:44:45;96083.19;;;14.68;100.00
60874;BME280;46715;40.642;-7.920;2022-10-16T01:46:50;96080.56;;;14.68;100.00
60874;BME280;46715;40.642;-7.920;2022-10-16T01:48:53;96077.44;;;14.65;100.00
60874;BME280;46715;40.642;-7.920;2022-10-16T01:51:09;96076.97;;;14.63;100.00
60874;BME280;46715;40.642;-7.920;2022-10-16T01:53:13;96070.19;;;14.62;100.00
60874;BME280;46715;40.642;-7.920;2022-10-16T01:55:20;96076.28;;;14.72;100.00
60874;BME280;46715;40.642;-7.920;2022-10-16T01:57:24;96077.63;;;14.69;100.00
60874;BME280;46715;40.642;-7.920;2022-10-16T01:59:29;96070.44;;;14.75;100.00
60874;BME280;46715;40.642;-7.920;2022-10-16T02:01:33;96064.97;;;14.71;100.00
60874;BME280;46715;40.642;-7.920;2022-10-16T02:03:37;96063.16;;;14.72;100.00
60874;BME280;46715;40.642;-7.920;2022-10-16T02:05:54;96066.34;;;14.69;100.00
60874;BME280;46715;40.642;-7.920;2022-10-16T02:07:55;96063.25;;;14.66;100.00
60874;BME280;46715;40.642;-7.920;2022-10-16T02:10:00;96062.31;;;14.62;100.00
60874;BME280;46715;40.642;-7.920;2022-10-16T02:12:10;96062.38;;;14.57;100.00
60874;BME280;46715;40.642;-7.920;2022-10-16T02:14:14;96061.72;;;14.52;100.00
60874;BME280;46715;40.642;-7.920;2022-10-16T02:16:14;96055.22;;;14.49;100.00
60874;BME280;46715;40.642;-7.920;2022-10-16T02:18:16;96065.53;;;14.45;100.00
60874;BME280;46715;40.642;-7.920;2022-10-16T02:20:19;96070.28;;;14.43;100.00
60874;BME280;46715;40.642;-7.920;2022-10-16T02:22:35;96071.38;;;14.42;100.00
60874;BME280;46715;40.642;-7.920;2022-10-16T02:27:15;96064.88;;;14.40;100.00
60874;BME280;46715;40.642;-7.920;2022-10-16T02:29:22;96058.53;;;14.41;100.00
60874;BME280;46715;40.642;-7.920;2022-10-16T02:31:28;96060.41;;;14.40;100.00
60874;BME280;46715;40.642;-7.920;2022-10-16T02:33:33;96053.28;;;14.41;100.00
60874;BME280;46715;40.642;-7.920;2022-10-16T02:35:36;96055.66;;;14.42;100.00
60874;BME280;46715;40.642;-7.920;2022-10-16T02:37:38;96069.53;;;14.43;100.00
60874;BME280;46715;40.642;-7.920;2022-10-16T02:39:41;96062.91;;;14.45;100.00
60874;BME280;46715;40.642;-7.920;2022-10-16T02:41:42;96064.19;;;14.48;100.00
60874;BME280;46715;40.642;-7.920;2022-10-16T02:43:44;96055.50;;;14.47;100.00
60874;BME280;46715;40.642;-7.920;2022-10-16T02:45:44;96055.22;;;14.49;100.00
60874;BME280;46715;40.642;-7.920;2022-10-16T02:47:45;96047.06;;;14.51;100.00
60874;BME280;46715;40.642;-7.920;2022-10-16T02:49:46;96054.66;;;14.52;100.00
60874;BME280;46715;40.642;-7.920;2022-10-16T02:51:47;96040.94;;;14.55;100.00
60874;BME280;46715;40.642;-7.920;2022-10-16T02:53:48;96034.31;;;14.58;100.00
60874;BME280;46715;40.642;-7.920;2022-10-16T02:55:48;96033.72;;;14.61;100.00
60874;BME280;46715;40.642;-7.920;2022-10-16T02:57:49;96038.69;;;14.62;100.00
60874;BME280;46715;40.642;-7.920;2022-10-16T02:59:50;96024.50;;;14.63;100.00
60874;BME280;46715;40.642;-7.920;2022-10-16T03:01:51;96023.44;;;14.64;100.00
60874;BME280;46715;40.642;-7.920;2022-10-16T03:03:52;96020.00;;;14.64;100.00
60874;BME280;46715;40.642;-7.920;2022-10-16T03:05:53;96013.41;;;14.66;100.00
60874;BME280;46715;40.642;-7.920;2022-10-16T03:07:53;96020.31;;;14.62;100.00
60874;BME280;46715;40.642;-7.920;2022-10-16T03:09:54;96021.34;;;14.61;100.00
60874;BME280;46715;40.642;-7.920;2022-10-16T03:11:55;96014.56;;;14.60;100.00
60874;BME280;46715;40.642;-7.920;2022-10-16T03:13:56;96010.59;;;14.63;100.00
60874;BME280;46715;40.642;-7.920;2022-10-16T03:15:57;96007.69;;;14.64;100.00
60874;BME280;46715;40.642;-7.920;2022-10-16T03:17:58;96012.13;;;14.64;100.00
60874;BME280;46715;40.642;-7.920;2022-10-16T03:19:59;96016.31;;;14.65;100.00
60874;BME280;46715;40.642;-7.920;2022-10-16T03:22:00;96001.16;;;14.62;100.00
60874;BME280;46715;40.642;-7.920;2022-10-16T03:24:00;96012.13;;;14.64;100.00
60874;BME280;46715;40.642;-7.920;2022-10-16T03:26:01;96002.44;;;14.64;100.00
60874;BME280;46715;40.642;-7.920;2022-10-16T03:28:02;95996.09;;;14.65;100.00
60874;BME280;46715;40.642;-7.920;2022-10-16T03:30:03;96009.22;;;14.65;100.00
60874;BME280;46715;40.642;-7.920;2022-10-16T03:32:05;96002.53;;;14.59;100.00
60874;BME280;46715;40.642;-7.920;2022-10-16T03:34:06;96005.59;;;14.61;100.00
60874;BME280;46715;40.642;-7.920;2022-10-16T03:36:06;96004.09;;;14.60;100.00
60874;BME280;46715;40.642;-7.920;2022-10-16T03:38:07;96008.53;;;14.60;100.00
60874;BME280;46715;40.642;-7.920;2022-10-16T03:40:08;96000.38;;;14.61;100.00
60874;BME280;46715;40.642;-7.920;2022-10-16T03:42:09;96009.03;;;14.62;100.00
60874;BME280;46715;40.642;-7.920;2022-10-16T03:44:10;96003.50;;;14.63;100.00
60874;BME280;46715;40.642;-7.920;2022-10-16T03:46:10;96012.22;;;14.59;100.00
60874;BME280;46715;40.642;-7.920;2022-10-16T03:48:11;96011.66;;;14.62;100.00
60874;BME280;46715;40.642;-7.920;2022-10-16T03:50:12;96020.31;;;14.62;100.00
60874;BME280;46715;40.642;-7.920;2022-10-16T03:52:13;96022.34;;;14.65;100.00
60874;BME280;46715;40.642;-7.920;2022-10-16T03:54:14;96015.56;;;14.64;100.00
60874;BME280;46715;40.642;-7.920;2022-10-16T03:56:14;96015.06;;;14.62;100.00
60874;BME280;46715;40.642;-7.920;2022-10-16T03:58:16;96004.09;;;14.60;100.00
60874;BME280;46715;40.642;-7.920;2022-10-16T04:00:17;96005.16;;;14.59;100.00
60874;BME280;46715;40.642;-7.920;2022-10-16T04:02:17;96023.97;;;14.61;100.00
60874;BME280;46715;40.642;-7.920;2022-10-16T04:04:18;96025.66;;;14.57;100.00
60874;BME280;46715;40.642;-7.920;2022-10-16T04:06:19;96017.00;;;14.57;100.00
60874;BME280;46715;40.642;-7.920;2022-10-16T04:08:20;96010.50;;;14.54;100.00
60874;BME280;46715;40.642;-7.920;2022-10-16T04:10:21;96014.19;;;14.53;100.00
60874;BME280;46715;40.642;-7.920;2022-10-16T04:12:22;96025.66;;;14.57;100.00
60874;BME280;46715;40.642;-7.920;2022-10-16T04:14:23;96017.31;;;14.55;100.00
60874;BME280;46715;40.642;-7.920;2022-10-16T04:16:23;96014.19;;;14.53;100.00
60874;BME280;46715;40.642;-7.920;2022-10-16T04:18:24;96012.97;;;14.51;100.00
60874;BME280;46715;40.642;-7.920;2022-10-16T04:20:27;96018.78;;;14.47;100.00
60874;BME280;46715;40.642;-7.920;2022-10-16T04:22:29;96009.66;;;14.45;100.00
60874;BME280;46715;40.642;-7.920;2022-10-16T04:24:30;96009.97;;;14.43;100.00
60874;BME280;46715;40.642;-7.920;2022-10-16T04:26:31;96009.50;;;14.41;100.00
60874;BME280;46715;40.642;-7.920;2022-10-16T04:28:31;96008.69;;;14.41;100.00
60874;BME280;46715;40.642;-7.920;2022-10-16T04:30:32;96003.00;;;14.39;100.00
60874;BME280;46715;40.642;-7.920;2022-10-16T04:32:34;96011.63;;;14.39;100.00
60874;BME280;46715;40.642;-7.920;2022-10-16T04:34:34;96006.38;;;14.39;100.00
60874;BME280;46715;40.642;-7.920;2022-10-16T04:36:35;96003.75;;;14.39;100.00
60874;BME280;46715;40.642;-7.920;2022-10-16T04:38:36;95995.59;;;14.41;100.00
60874;BME280;46715;40.642;-7.920;2022-10-16T04:40:38;96005.31;;;14.40;100.00
60874;BME280;46715;40.642;-7.920;2022-10-16T04:42:39;95996.97;;;14.38;100.00
60874;BME280;46715;40.642;-7.920;2022-10-16T04:44:40;96007.16;;;14.40;100.00
60874;BME280;46715;40.642;-7.920;2022-10-16T04:46:41;96006.69;;;14.38;100.00
60874;BME280;46715;40.642;-7.920;2022-10-16T04:48:42;96005.13;;;14.37;100.00
60874;BME280;46715;40.642;-7.920;2022-10-16T04:50:43;96010.84;;;14.39;100.00
60874;BME280;46715;40.642;-7.920;2022-10-16T04:52:44;96008.63;;;14.32;100.00
60874;BME280;46715;40.642;-7.920;2022-10-16T04:54:44;96004.28;;;14.27;100.00
60874;BME280;46715;40.642;-7.920;2022-10-16T04:56:45;96009.44;;;14.32;100.00
60874;BME280;46715;40.642;-7.920;2022-10-16T04:58:51;96014.78;;;14.27;100.00
60874;BME280;46715;40.642;-7.920;2022-10-16T05:00:52;96011.66;;;14.25;100.00
60874;BME280;46715;40.642;-7.920;2022-10-16T05:02:53;96011.50;;;14.22;100.00
60874;BME280;46715;40.642;-7.920;2022-10-16T05:04:53;96014.69;;;14.19;100.00
60874;BME280;46715;40.642;-7.920;2022-10-16T05:06:54;96016.56;;;14.18;100.00
60874;BME280;46715;40.642;-7.920;2022-10-16T05:08:55;96011.91;;;14.15;100.00
60874;BME280;46715;40.642;-7.920;2022-10-16T05:10:56;96020.06;;;14.13;100.00
60874;BME280;46715;40.642;-7.920;2022-10-16T05:12:57;96014.34;;;14.11;100.00
60874;BME280;46715;40.642;-7.920;2022-10-16T05:14:57;96010.66;;;14.12;100.00
60874;BME280;46715;40.642;-7.920;2022-10-16T05:16:59;96021.13;;;14.12;100.00
60874;BME280;46715;40.642;-7.920;2022-10-16T05:19:01;96020.53;;;14.15;100.00
60874;BME280;46715;40.642;-7.920;2022-10-16T05:21:02;96027.34;;;14.17;100.00
60874;BME280;46715;40.642;-7.920;2022-10-16T05:23:03;96026.38;;;14.12;100.00
60874;BME280;46715;40.642;-7.920;2022-10-16T05:25:05;96035.50;;;14.15;100.00
60874;BME280;46715;40.642;-7.920;2022-10-16T05:27:06;96041.41;;;14.21;100.00
60874;BME280;46715;40.642;-7.920;2022-10-16T05:29:07;96049.47;;;14.24;100.00
60874;BME280;46715;40.642;-7.920;2022-10-16T05:31:09;96050.25;;;14.25;100.00
60874;BME280;46715;40.642;-7.920;2022-10-16T05:33:10;96042.06;;;14.26;100.00
60874;BME280;46715;40.642;-7.920;2022-10-16T05:35:10;96042.69;;;14.23;100.00
60874;BME280;46715;40.642;-7.920;2022-10-16T05:37:12;96034.59;;;14.20;100.00
60874;BME280;46715;40.642;-7.920;2022-10-16T05:39:14;96043.84;;;14.17;100.00
60874;BME280;46715;40.642;-7.920;2022-10-16T05:41:15;96044.25;;;14.10;100.00
60874;BME280;46715;40.642;-7.920;2022-10-16T05:43:22;96040.56;;;14.11;100.00
60874;BME280;46715;40.642;-7.920;2022-10-16T05:45:23;96048.41;;;14.11;100.00
60874;BME280;46715;40.642;-7.920;2022-10-16T05:47:24;96044.44;;;14.14;100.00
60874;BME280;46715;40.642;-7.920;2022-10-16T05:49:25;96052.00;;;14.15;100.00
60874;BME280;46715;40.642;-7.920;2022-10-16T05:51:26;96053.25;;;14.18;100.00
60874;BME280;46715;40.642;-7.920;2022-10-16T05:53:30;96046.66;;;14.21;100.00
60874;BME280;46715;40.642;-7.920;2022-10-16T05:55:31;96045.69;;;14.17;100.00
60874;BME280;46715;40.642;-7.920;2022-10-16T05:57:33;96046.16;;;14.19;100.00
60874;BME280;46715;40.642;-7.920;2022-10-16T05:59:33;96047.63;;;14.25;100.00
60874;BME280;46715;40.642;-7.920;2022-10-16T06:01:34;96052.28;;;14.28;100.00
60874;BME280;46715;40.642;-7.920;2022-10-16T06:03:35;96053.53;;;14.30;100.00
60874;BME280;46715;40.642;-7.920;2022-10-16T06:05:36;96055.69;;;14.28;100.00
60874;BME280;46715;40.642;-7.920;2022-10-16T06:07:37;96067.91;;;14.33;100.00
60874;BME280;46715;40.642;-7.920;2022-10-16T06:09:39;96064.22;;;14.34;100.00
60874;BME280;46715;40.642;-7.920;2022-10-16T06:11:40;96071.13;;;14.30;100.00
60874;BME280;46715;40.642;-7.920;2022-10-16T06:13:41;96084.03;;;14.26;100.00
60874;BME280;46715;40.642;-7.920;2022-10-16T06:15:42;96086.47;;;14.23;100.00
60874;BME280;46715;40.642;-7.920;2022-10-16T06:17:43;96082.59;;;14.20;100.00
60874;BME280;46715;40.642;-7.920;2022-10-16T06:19:44;96089.38;;;14.21;100.00
60874;BME280;46715;40.642;-7.920;2022-10-16T06:21:45;96078.41;;;14.19;100.00
60874;BME280;46715;40.642;-7.920;2022-10-16T06:23:47;96072.88;;;14.21;100.00
60874;BME280;46715;40.642;-7.920;2022-10-16T06:25:48;96080.75;;;14.21;100.00
60874;BME280;46715;40.642;-7.920;2022-10-16T06:27:48;96082.31;;;14.22;100.00
60874;BME280;46715;40.642;-7.920;2022-10-16T06:29:49;96083.84;;;14.23;100.00
60874;BME280;46715;40.642;-7.920;2022-10-16T06:31:50;96086.97;;;14.25;100.00
60874;BME280;46715;40.642;-7.920;2022-10-16T06:33:51;96084.63;;;14.23;100.00
60874;BME280;46715;40.642;-7.920;2022-10-16T06:35:52;96091.91;;;14.26;100.00
60874;BME280;46715;40.642;-7.920;2022-10-16T06:37:53;96098.72;;;14.27;100.00
60874;BME280;46715;40.642;-7.920;2022-10-16T06:39:54;96096.84;;;14.28;100.00
60874;BME280;46715;40.642;-7.920;2022-10-16T06:41:55;96098.72;;;14.27;100.00
60874;BME280;46715;40.642;-7.920;2022-10-16T06:43:56;96094.22;;;14.28;100.00
60874;BME280;46715;40.642;-7.920;2022-10-16T06:45:57;96094.72;;;14.30;100.00
60874;BME280;46715;40.642;-7.920;2022-10-16T06:47:58;96101.34;;;14.27;100.00
60874;BME280;46715;40.642;-7.920;2022-10-16T06:49:59;96104.72;;;14.28;100.00
60874;BME280;46715;40.642;-7.920;2022-10-16T06:51:59;96100.34;;;14.37;100.00
60874;BME280;46715;40.642;-7.920;2022-10-16T06:54:01;96098.31;;;14.34;100.00
60874;BME280;46715;40.642;-7.920;2022-10-16T06:56:17;96107.41;;;14.37;100.00
60874;BME280;46715;40.642;-7.920;2022-10-16T06:58:18;96107.53;;;14.31;100.00
60874;BME280;46715;40.642;-7.920;2022-10-16T07:00:19;96111.03;;;14.27;100.00
60874;BME280;46715;40.642;-7.920;2022-10-16T07:02:20;96115.88;;;14.33;100.00
60874;BME280;46715;40.642;-7.920;2022-10-16T07:04:21;96110.25;;;14.40;100.00
60874;BME280;46715;40.642;-7.920;2022-10-16T07:06:23;96111.50;;;14.43;100.00
60874;BME280;46715;40.642;-7.920;2022-10-16T07:08:24;96110.44;;;14.44;100.00
60874;BME280;46715;40.642;-7.920;2022-10-16T07:10:25;96110.91;;;14.46;100.00
60874;BME280;46715;40.642;-7.920;2022-10-16T07:12:26;96116.81;;;14.52;100.00
60874;BME280;46715;40.642;-7.920;2022-10-16T07:14:27;96117.31;;;14.54;100.00
60874;BME280;46715;40.642;-7.920;2022-10-16T07:16:30;96113.78;;;14.58;100.00
60874;BME280;46715;40.642;-7.920;2022-10-16T07:18:31;96112.06;;;14.68;100.00
60874;BME280;46715;40.642;-7.920;2022-10-16T07:20:33;96113.47;;;14.74;100.00
60874;BME280;46715;40.642;-7.920;2022-10-16T07:22:33;96116.00;;;14.79;100.00
60874;BME280;46715;40.642;-7.920;2022-10-16T07:24:34;96119.59;;;14.83;100.00
60874;BME280;46715;40.642;-7.920;2022-10-16T07:26:36;96121.84;;;14.76;100.00
60874;BME280;46715;40.642;-7.920;2022-10-16T07:28:37;96117.56;;;14.80;100.00
60874;BME280;46715;40.642;-7.920;2022-10-16T07:30:39;96127.16;;;14.85;100.00
60874;BME280;46715;40.642;-7.920;2022-10-16T07:32:40;96133.72;;;14.96;100.00
60874;BME280;46715;40.642;-7.920;2022-10-16T07:34:41;96127.75;;;15.04;100.00
60874;BME280;46715;40.642;-7.920;2022-10-16T07:36:42;96126.03;;;15.22;100.00
60874;BME280;46715;40.642;-7.920;2022-10-16T07:38:44;96128.56;;;15.36;100.00
60874;BME280;46715;40.642;-7.920;2022-10-16T07:40:45;96133.28;;;16.19;100.00
60874;BME280;46715;40.642;-7.920;2022-10-16T07:42:45;96146.97;;;17.35;93.86
60874;BME280;46715;40.642;-7.920;2022-10-16T07:44:46;96151.09;;;18.40;84.45
60874;BME280;46715;40.642;-7.920;2022-10-16T07:46:47;96151.75;;;18.88;81.64
60874;BME280;46715;40.642;-7.920;2022-10-16T07:48:48;96147.06;;;18.85;79.61
60874;BME280;46715;40.642;-7.920;2022-10-16T07:50:49;96156.34;;;18.19;82.26
60874;BME280;46715;40.642;-7.920;2022-10-16T07:52:50;96156.00;;;17.82;83.54
60874;BME280;46715;40.642;-7.920;2022-10-16T07:54:51;96152.53;;;17.51;86.02
60874;BME280;46715;40.642;-7.920;2022-10-16T07:56:52;96146.56;;;17.16;88.58
60874;BME280;46715;40.642;-7.920;2022-10-16T07:58:52;96141.75;;;17.09;89.95
60874;BME280;46715;40.642;-7.920;2022-10-16T08:00:54;96141.59;;;17.06;90.02
60874;BME280;46715;40.642;-7.920;2022-10-16T08:02:56;96146.84;;;16.70;91.37
60874;BME280;46715;40.642;-7.920;2022-10-16T08:05:00;96144.03;;;16.58;92.49
60874;BME280;46715;40.642;-7.920;2022-10-16T08:07:01;96142.91;;;16.42;93.81
60874;BME280;46715;40.642;-7.920;2022-10-16T08:09:01;96145.06;;;16.31;94.88
60874;BME280;46715;40.642;-7.920;2022-10-16T08:11:02;96142.25;;;16.18;96.01
60874;BME280;46715;40.642;-7.920;2022-10-16T08:13:06;96135.28;;;16.23;96.96
60874;BME280;46715;40.642;-7.920;2022-10-16T08:15:07;96144.84;;;16.94;92.31
60874;BME280;46715;40.642;-7.920;2022-10-16T08:17:08;96135.75;;;17.65;86.73
60874;BME280;46715;40.642;-7.920;2022-10-16T08:19:09;96154.47;;;18.19;83.67
60874;BME280;46715;40.642;-7.920;2022-10-16T08:21:15;96157.22;;;17.93;83.40
60874;BME280;46715;40.642;-7.920;2022-10-16T08:23:16;96159.28;;;17.79;83.95
60874;BME280;46715;40.642;-7.920;2022-10-16T08:25:17;96164.94;;;17.51;85.25
60874;BME280;46715;40.642;-7.920;2022-10-16T08:27:18;96170.13;;;17.03;87.38
60874;BME280;46715;40.642;-7.920;2022-10-16T08:29:19;96159.09;;;16.84;89.28
60874;BME280;46715;40.642;-7.920;2022-10-16T08:31:20;96159.97;;;16.44;91.45
60874;BME280;46715;40.642;-7.920;2022-10-16T08:33:21;96163.16;;;16.32;93.13
60874;BME280;46715;40.642;-7.920;2022-10-16T08:35:22;96169.03;;;16.29;93.87
60874;BME280;46715;40.642;-7.920;2022-10-16T08:37:23;96163.16;;;16.24;93.65
60874;BME280;46715;40.642;-7.920;2022-10-16T08:39:23;96159.16;;;16.35;93.17
60874;BME280;46715;40.642;-7.920;2022-10-16T08:44:18;96173.22;;;16.22;94.36
60874;BME280;46715;40.642;-7.920;2022-10-16T08:48:45;96179.25;;;16.31;93.03
60874;BME280;46715;40.642;-7.920;2022-10-16T08:50:49;96177.88;;;16.25;92.63
60874;BME280;46715;40.642;-7.920;2022-10-16T08:52:51;96182.91;;;16.04;94.25
60874;BME280;46715;40.642;-7.920;2022-10-16T08:54:55;96181.00;;;15.95;94.98
60874;BME280;46715;40.642;-7.920;2022-10-16T08:57:04;96187.00;;;15.87;95.77
60874;BME280;46715;40.642;-7.920;2022-10-16T08:59:13;96191.34;;;15.92;96.15
60874;BME280;46715;40.642;-7.920;2022-10-16T09:01:16;96191.84;;;15.94;95.83
60874;BME280;46715;40.642;-7.920;2022-10-16T09:03:46;96194.81;;;16.01;95.17
60874;BME280;46715;40.642;-7.920;2022-10-16T09:08:01;96179.19;;;16.62;92.20
60874;BME280;46715;40.642;-7.920;2022-10-16T09:12:35;96169.50;;;17.80;84.33
60874;BME280;46715;40.642;-7.920;2022-10-16T09:16:58;96167.25;;;18.09;80.40
60874;BME280;46715;40.642;-7.920;2022-10-16T09:21:18;96184.59;;;17.62;82.36
60874;BME280;46715;40.642;-7.920;2022-10-16T09:23:25;96190.22;;;17.52;83.00
60874;BME280;46715;40.642;-7.920;2022-10-16T09:25:27;96189.88;;;17.62;82.62
60874;BME280;46715;40.642;-7.920;2022-10-16T09:27:28;96184.00;;;17.39;83.05
60874;BME280;46715;40.642;-7.920;2022-10-16T09:29:29;96177.22;;;17.29;84.37
60874;BME280;46715;40.642;-7.920;2022-10-16T09:31:31;96175.06;;;17.31;85.06
60874;BME280;46715;40.642;-7.920;2022-10-16T09:33:37;96182.31;;;17.34;84.07
60874;BME280;46715;40.642;-7.920;2022-10-16T09:35:42;96179.09;;;17.29;84.39
60874;BME280;46715;40.642;-7.920;2022-10-16T09:37:47;96192.56;;;17.27;84.87
60874;BME280;46715;40.642;-7.920;2022-10-16T09:39:51;96193.31;;;17.45;84.18
60874;BME280;46715;40.642;-7.920;2022-10-16T09:41:53;96194.69;;;17.60;83.22
60874;BME280;46715;40.642;-7.920;2022-10-16T09:43:59;96196.31;;;18.00;81.58
60874;BME280;46715;40.642;-7.920;2022-10-16T09:46:07;96192.19;;;18.50;79.27
60874;BME280;46715;40.642;-7.920;2022-10-16T09:48:13;96195.38;;;18.94;77.32
60874;BME280;46715;40.642;-7.920;2022-10-16T09:50:28;96196.97;;;19.07;75.20
60874;BME280;46715;40.642;-7.920;2022-10-16T09:52:30;96188.31;;;19.19;72.93
60874;BME280;46715;40.642;-7.920;2022-10-16T09:54:31;96193.84;;;19.48;72.70
60874;BME280;46715;40.642;-7.920;2022-10-16T09:56:33;96197.38;;;19.98;71.22
60874;BME280;46715;40.642;-7.920;2022-10-16T09:58:36;96191.97;;;19.94;69.19
60874;BME280;46715;40.642;-7.920;2022-10-16T10:00:38;96203.41;;;19.86;69.18
60874;BME280;46715;40.642;-7.920;2022-10-16T10:02:42;96208.31;;;19.75;69.94
60874;BME280;46715;40.642;-7.920;2022-10-16T10:04:49;96202.59;;;19.73;70.20
60874;BME280;46715;40.642;-7.920;2022-10-16T10:06:53;96198.00;;;19.49;71.46
60874;BME280;46715;40.642;-7.920;2022-10-16T10:09:00;96199.16;;;19.72;70.81
60874;BME280;46715;40.642;-7.920;2022-10-16T10:11:03;96190.41;;;19.93;70.71
60874;BME280;46715;40.642;-7.920;2022-10-16T10:13:20;96192.31;;;19.92;69.92
60874;BME280;46715;40.642;-7.920;2022-10-16T10:15:23;96190.44;;;20.05;68.35
60874;BME280;46715;40.642;-7.920;2022-10-16T10:17:26;96179.72;;;20.14;68.28
60874;BME280;46715;40.642;-7.920;2022-10-16T10:19:28;96182.72;;;20.25;67.07
60874;BME280;46715;40.642;-7.920;2022-10-16T10:21:29;96186.78;;;20.35;66.80
60874;BME280;46715;40.642;-7.920;2022-10-16T10:23:30;96180.19;;;20.16;66.71
60874;BME280;46715;40.642;-7.920;2022-10-16T10:34:33;96173.72;;;19.01;71.87
60874;BME280;46715;40.642;-7.920;2022-10-16T10:36:40;96162.88;;;19.15;71.99
60874;BME280;46715;40.642;-7.920;2022-10-16T10:38:53;96166.09;;;19.20;70.66
60874;BME280;46715;40.642;-7.920;2022-10-16T10:45:43;96159.19;;;19.74;69.48
60874;BME280;46715;40.642;-7.920;2022-10-16T10:54:48;96168.38;;;19.55;69.26
60874;BME280;46715;40.642;-7.920;2022-10-16T10:57:25;96163.94;;;19.47;69.27
60874;BME280;46715;40.642;-7.920;2022-10-16T11:02:15;96170.56;;;19.87;67.94
60874;BME280;46715;40.642;-7.920;2022-10-16T11:04:56;96173.13;;;20.08;68.86
60874;BME280;46715;40.642;-7.920;2022-10-16T11:07:05;96166.69;;;20.46;66.69
60874;BME280;46715;40.642;-7.920;2022-10-16T11:09:13;96162.59;;;20.73;64.69
60874;BME280;46715;40.642;-7.920;2022-10-16T11:11:24;96164.66;;;20.92;64.50
60874;BME280;46715;40.642;-7.920;2022-10-16T11:13:54;96157.63;;;20.84;63.50
60874;BME280;46715;40.642;-7.920;2022-10-16T11:16:03;96151.41;;;20.92;64.53
60874;BME280;46715;40.642;-7.920;2022-10-16T11:18:12;96154.69;;;21.02;63.65
60874;BME280;46715;40.642;-7.920;2022-10-16T11:26:39;96131.41;;;21.68;61.25
60874;BME280;46715;40.642;-7.920;2022-10-16T11:28:45;96121.22;;;21.70;61.09
60874;BME280;46715;40.642;-7.920;2022-10-16T11:31:02;96110.38;;;21.46;60.95
60874;BME280;46715;40.642;-7.920;2022-10-16T11:35:19;96117.72;;;21.37;61.36